KHLB/HLB METAR and TAF weather

Enter ICAO airport designator
Station Type Date Time Source
KHLB METAR 2020/07/06 19:55 UTC NOAA

KHLB 061955Z AUTO VRB04KT 10SM CLR 31/20 A3002 RMK A01


Station Type Date Time Source
KHLB Decoded METAR 2020/07/06 19:55 UTC NOAA

Station name not available
Jul 06, 2020 - 03:55 PM EDT / 2020.07.06 1955 UTC
Wind: Variable at 5 MPH (4 KT):0
Visibility: 10 mile(s):0
Sky conditions: clear
Temperature: 87 F (31 C)
Dew Point: 68 F (20 C)
Relative Humidity: 52%
Pressure (altimeter): 30.02 in. Hg (1016 hPa)
ob: KHLB 061955Z AUTO VRB04KT 10SM CLR 31/20 A3002 RMK A01
cycle: 20

Station Type Date Time Source
KHLB TAF UTC NOAA

Error!

Example: see airport list